createdAt,value
2019-01-29T00:00:40.665Z,8.80
2019-01-29T00:01:40.657Z,8.30
2019-01-29T00:02:40.670Z,10.70
2019-01-29T00:03:40.682Z,10.40
2019-01-29T00:04:40.699Z,12.80
2019-01-29T00:05:40.710Z,11.30
2019-01-29T00:06:40.726Z,13.80
2019-01-29T00:07:40.738Z,6.70
2019-01-29T00:08:40.747Z,9.20
2019-01-29T00:09:40.762Z,8.90
2019-01-29T00:10:40.775Z,8.10
2019-01-29T00:11:40.784Z,15.60
2019-01-29T00:12:40.797Z,10.00
2019-01-29T00:13:40.813Z,8.30
2019-01-29T00:14:40.824Z,8.50
2019-01-29T00:15:40.836Z,7.50
2019-01-29T00:16:40.849Z,11.50
2019-01-29T00:17:40.864Z,6.70
2019-01-29T00:18:40.878Z,10.20
2019-01-29T00:19:41.039Z,10.70
2019-01-29T00:20:40.904Z,12.50
2019-01-29T00:21:40.917Z,13.30
2019-01-29T00:22:40.928Z,8.90
2019-01-29T00:23:40.942Z,11.30
2019-01-29T00:24:40.954Z,11.50
2019-01-29T00:25:40.967Z,10.60
2019-01-29T00:26:40.979Z,12.90
2019-01-29T00:27:40.992Z,9.80
2019-01-29T00:28:41.006Z,13.50
2019-01-29T00:29:41.021Z,8.30
2019-01-29T00:30:41.034Z,9.70
2019-01-29T00:31:41.102Z,9.80
2019-01-29T00:32:41.064Z,9.50
2019-01-29T00:33:41.073Z,8.50
2019-01-29T00:34:41.086Z,15.80
2019-01-29T00:35:41.099Z,13.50
2019-01-29T00:36:41.115Z,12.40
2019-01-29T00:37:41.125Z,10.10
2019-01-29T00:38:41.137Z,14.60
2019-01-29T00:39:41.148Z,7.60
2019-01-29T00:40:41.164Z,10.00
2019-01-29T00:41:41.174Z,10.00
2019-01-29T00:42:41.190Z,12.90
2019-01-29T00:43:41.200Z,9.70
2019-01-29T00:44:41.215Z,8.60
2019-01-29T00:45:41.229Z,11.80
2019-01-29T00:46:41.241Z,7.60
2019-01-29T00:47:41.252Z,10.80
2019-01-29T00:48:41.266Z,9.00
2019-01-29T00:49:41.279Z,12.40
2019-01-29T00:50:41.291Z,10.20
2019-01-29T00:51:41.305Z,12.00
2019-01-29T00:52:42.187Z,9.50
2019-01-29T00:53:41.330Z,5.00
2019-01-29T00:54:41.343Z,10.20
2019-01-29T00:55:41.356Z,10.70
2019-01-29T00:56:41.369Z,11.10
2019-01-29T00:57:41.384Z,9.80
2019-01-29T00:58:41.395Z,10.40
2019-01-29T00:59:41.414Z,11.80
2019-01-29T01:00:41.432Z,9.00
2019-01-29T01:01:41.436Z,13.60
2019-01-29T01:02:41.448Z,9.90
2019-01-29T01:03:41.460Z,9.00
2019-01-29T01:04:41.473Z,9.30
2019-01-29T01:05:41.486Z,12.30
2019-01-29T01:06:41.502Z,8.50
2019-01-29T01:07:41.512Z,10.00
2019-01-29T01:08:41.528Z,12.80
2019-01-29T01:09:41.539Z,8.50
2019-01-29T01:10:41.554Z,10.30
2019-01-29T01:11:41.568Z,12.70
2019-01-29T01:12:41.579Z,10.10
2019-01-29T01:13:41.591Z,11.50
2019-01-29T01:14:41.603Z,7.60
2019-01-29T01:15:41.616Z,10.60
2019-01-29T01:16:41.630Z,9.70
2019-01-29T01:17:41.649Z,7.90
2019-01-29T01:18:41.658Z,9.10
2019-01-29T01:19:41.669Z,7.80
2019-01-29T01:20:41.686Z,11.10
2019-01-29T01:21:41.700Z,9.60
2019-01-29T01:22:50.315Z,8.50
2019-01-29T01:23:41.723Z,11.10
2019-01-29T01:24:41.739Z,9.60
2019-01-29T01:25:41.749Z,10.90
2019-01-29T01:26:41.762Z,11.40
2019-01-29T01:27:41.777Z,5.40
2019-01-29T01:28:41.787Z,9.80
2019-01-29T01:29:41.802Z,9.00
2019-01-29T01:30:41.816Z,10.20
2019-01-29T01:31:41.830Z,8.80
2019-01-29T01:32:41.839Z,10.50
2019-01-29T01:33:42.104Z,8.70
2019-01-29T01:34:41.869Z,11.00
2019-01-29T01:35:41.882Z,9.10
2019-01-29T01:36:41.892Z,8.40
2019-01-29T01:37:41.907Z,13.10
2019-01-29T01:38:41.919Z,11.90
2019-01-29T01:39:41.936Z,10.50
2019-01-29T01:40:41.944Z,12.10
2019-01-29T01:41:41.960Z,11.90
2019-01-29T01:42:41.973Z,12.50
2019-01-29T01:43:41.982Z,7.40
2019-01-29T01:44:41.996Z,8.70
2019-01-29T01:45:42.009Z,8.20
2019-01-29T01:46:42.021Z,9.00
2019-01-29T01:47:42.037Z,8.70
2019-01-29T01:48:42.048Z,8.00
2019-01-29T01:49:42.061Z,6.30
2019-01-29T01:50:42.076Z,10.00
2019-01-29T01:51:42.087Z,8.10
2019-01-29T01:52:42.104Z,10.70
2019-01-29T01:53:42.116Z,12.70
2019-01-29T01:54:42.128Z,11.20
2019-01-29T01:55:42.142Z,17.00
2019-01-29T01:56:42.155Z,9.60
2019-01-29T01:57:42.167Z,8.10
2019-01-29T01:58:42.177Z,8.90
2019-01-29T01:59:42.191Z,9.20
2019-01-29T02:00:42.204Z,9.80
2019-01-29T02:01:42.222Z,10.30
2019-01-29T02:02:42.229Z,8.60
2019-01-29T02:03:42.242Z,9.70
2019-01-29T02:04:42.258Z,9.40
2019-01-29T02:05:42.272Z,7.10
2019-01-29T02:06:42.281Z,8.40
2019-01-29T02:07:42.296Z,6.80
2019-01-29T02:08:42.308Z,9.20
2019-01-29T02:09:42.324Z,9.30
2019-01-29T02:10:42.344Z,8.90
2019-01-29T02:11:42.347Z,9.30
2019-01-29T02:12:42.362Z,9.20
2019-01-29T02:13:42.377Z,7.70
2019-01-29T02:14:42.385Z,9.90
2019-01-29T02:15:42.399Z,10.60
2019-01-29T02:16:42.413Z,9.80
2019-01-29T02:17:42.426Z,12.20
2019-01-29T02:18:42.439Z,10.20
2019-01-29T02:19:42.452Z,15.00
2019-01-29T02:20:42.464Z,16.40
2019-01-29T02:21:42.480Z,9.60
2019-01-29T02:22:42.489Z,6.80
2019-01-29T02:23:42.505Z,10.20
2019-01-29T02:24:42.518Z,11.80
2019-01-29T02:25:42.529Z,10.10
2019-01-29T02:26:42.541Z,12.10
2019-01-29T02:27:42.557Z,10.30
2019-01-29T02:28:42.567Z,9.80
2019-01-29T02:29:42.581Z,10.00
2019-01-29T02:30:43.293Z,9.90
2019-01-29T02:31:42.608Z,12.10
2019-01-29T02:32:42.621Z,9.80
2019-01-29T02:33:42.633Z,11.70
2019-01-29T02:34:42.650Z,9.90
2019-01-29T02:35:42.661Z,10.10
2019-01-29T02:36:42.671Z,6.70
2019-01-29T02:37:42.685Z,10.20
2019-01-29T02:38:42.699Z,10.00
2019-01-29T02:39:42.708Z,8.20
2019-01-29T02:40:42.723Z,10.10
2019-01-29T02:41:42.741Z,11.40
2019-01-29T02:42:42.751Z,10.40
2019-01-29T02:43:42.762Z,11.50
2019-01-29T02:44:42.772Z,14.80
2019-01-29T02:45:42.788Z,10.90
2019-01-29T02:46:42.801Z,11.20
2019-01-29T02:47:42.811Z,15.90
2019-01-29T02:48:42.824Z,12.30
2019-01-29T02:49:42.842Z,9.80
2019-01-29T02:50:42.849Z,12.10
2019-01-29T02:51:42.869Z,11.10
2019-01-29T02:52:42.875Z,7.00
2019-01-29T02:53:42.892Z,11.80
2019-01-29T02:54:42.903Z,8.30
2019-01-29T02:55:42.914Z,12.00
2019-01-29T02:56:42.930Z,11.30
2019-01-29T02:57:42.940Z,16.70
2019-01-29T02:58:42.951Z,11.00
2019-01-29T02:59:42.965Z,11.60
2019-01-29T03:00:42.979Z,9.10
2019-01-29T03:01:42.991Z,10.30
2019-01-29T03:02:43.003Z,9.30
2019-01-29T03:03:43.018Z,8.70
2019-01-29T03:04:43.037Z,13.90
2019-01-29T03:05:43.045Z,12.10
2019-01-29T03:06:43.062Z,10.30
2019-01-29T03:07:43.067Z,9.30
2019-01-29T03:08:43.081Z,10.10
2019-01-29T03:09:43.096Z,8.90
2019-01-29T03:10:43.109Z,15.30
2019-01-29T03:11:43.122Z,11.60
2019-01-29T03:12:43.133Z,10.10
2019-01-29T03:13:43.148Z,11.40
2019-01-29T03:14:43.216Z,11.20
2019-01-29T03:15:43.170Z,11.00
2019-01-29T03:16:43.182Z,10.60
2019-01-29T03:17:43.196Z,10.40
2019-01-29T03:18:43.208Z,12.90
2019-01-29T03:19:43.227Z,11.00
2019-01-29T03:20:43.240Z,11.80
2019-01-29T03:21:43.247Z,10.00
2019-01-29T03:22:43.269Z,8.00
2019-01-29T03:23:43.274Z,12.80
2019-01-29T03:24:43.287Z,12.40
2019-01-29T03:25:43.298Z,10.70
2019-01-29T03:26:43.330Z,8.60
2019-01-29T03:27:43.326Z,12.40
2019-01-29T03:28:43.340Z,11.00
2019-01-29T03:29:43.350Z,13.60
2019-01-29T03:30:43.363Z,12.80
2019-01-29T03:31:43.377Z,11.80
2019-01-29T03:32:43.400Z,9.80
2019-01-29T03:33:43.406Z,11.70
2019-01-29T03:34:43.416Z,11.60
2019-01-29T03:35:43.429Z,10.20
2019-01-29T03:36:43.447Z,10.20
2019-01-29T03:37:43.453Z,11.40
2019-01-29T03:38:43.468Z,12.70
2019-01-29T03:39:43.478Z,11.00
2019-01-29T03:40:43.495Z,10.70
2019-01-29T03:41:43.509Z,11.80
2019-01-29T03:42:43.519Z,11.10
2019-01-29T03:43:43.531Z,11.20
2019-01-29T03:44:43.554Z,13.70
2019-01-29T03:45:43.555Z,8.90
2019-01-29T03:46:43.567Z,17.40
2019-01-29T03:47:43.592Z,12.40
2019-01-29T03:48:43.693Z,17.20
2019-01-29T03:49:43.607Z,15.70
2019-01-29T03:50:43.632Z,13.80
2019-01-29T03:51:43.639Z,12.90
2019-01-29T03:52:43.650Z,12.80
2019-01-29T03:53:43.660Z,15.80
2019-01-29T03:54:43.672Z,14.60
2019-01-29T03:55:43.687Z,13.40
2019-01-29T03:56:43.696Z,17.10
2019-01-29T03:57:43.714Z,18.50
2019-01-29T03:58:43.724Z,16.90
2019-01-29T03:59:43.736Z,17.60
2019-01-29T04:00:43.753Z,16.80
2019-01-29T04:01:43.762Z,17.00
2019-01-29T04:02:43.778Z,17.40
2019-01-29T04:03:43.787Z,14.70
2019-01-29T04:04:43.801Z,15.60
2019-01-29T04:05:43.814Z,16.70
2019-01-29T04:06:43.826Z,19.90
2019-01-29T04:07:43.836Z,19.00
2019-01-29T04:08:43.849Z,13.10
2019-01-29T04:09:43.865Z,18.90
2019-01-29T04:10:43.876Z,18.10
2019-01-29T04:11:43.887Z,18.70
2019-01-29T04:12:43.910Z,19.30
2019-01-29T04:13:43.917Z,19.40
2019-01-29T04:14:43.926Z,16.90
2019-01-29T04:15:43.942Z,16.50
2019-01-29T04:16:43.952Z,22.80
2019-01-29T04:17:43.969Z,17.20
2019-01-29T04:18:43.979Z,18.90
2019-01-29T04:19:43.990Z,20.60
2019-01-29T04:20:44.012Z,18.40
2019-01-29T04:21:44.017Z,19.90
2019-01-29T04:22:45.851Z,20.70
2019-01-29T04:23:47.711Z,16.10
2019-01-29T04:24:44.054Z,19.00
2019-01-29T04:25:44.067Z,18.70
2019-01-29T04:26:44.080Z,23.50
2019-01-29T04:27:44.092Z,23.50
2019-01-29T04:28:44.108Z,20.90
2019-01-29T04:29:44.120Z,21.50
2019-01-29T04:30:44.132Z,19.30
2019-01-29T04:31:44.147Z,22.20
2019-01-29T04:32:44.167Z,23.80
2019-01-29T04:33:44.191Z,22.50
2019-01-29T04:34:44.187Z,20.70
2019-01-29T04:35:44.195Z,21.50
2019-01-29T04:36:44.209Z,21.30
2019-01-29T04:37:44.257Z,18.50
2019-01-29T04:38:44.236Z,19.60
2019-01-29T04:39:44.253Z,24.30
2019-01-29T04:40:44.263Z,20.70
2019-01-29T04:41:44.275Z,20.90
2019-01-29T04:42:44.287Z,17.80
2019-01-29T04:43:44.300Z,15.20
2019-01-29T04:44:44.311Z,21.00
2019-01-29T04:45:44.327Z,15.80
2019-01-29T04:46:44.341Z,18.70
2019-01-29T04:47:44.352Z,27.20
2019-01-29T04:48:44.362Z,19.40
2019-01-29T04:49:44.377Z,20.30
2019-01-29T04:50:44.390Z,20.20
2019-01-29T04:51:44.401Z,23.50
2019-01-29T04:52:44.431Z,21.70
2019-01-29T04:53:44.429Z,18.80
2019-01-29T04:54:44.441Z,24.70
2019-01-29T04:55:44.455Z,22.00
2019-01-29T04:56:44.469Z,23.30
2019-01-29T04:57:44.488Z,17.80
2019-01-29T04:58:44.492Z,19.70
2019-01-29T04:59:44.507Z,19.80
2019-01-29T05:00:44.518Z,19.20
2019-01-29T05:01:44.530Z,15.70
2019-01-29T05:02:44.552Z,23.00
2019-01-29T05:03:44.555Z,18.70
2019-01-29T05:04:44.568Z,17.30
2019-01-29T05:05:44.587Z,21.10
2019-01-29T05:06:44.597Z,23.50
2019-01-29T05:07:44.623Z,23.50
2019-01-29T05:08:44.619Z,22.20
2019-01-29T05:09:44.637Z,19.90
2019-01-29T05:10:44.646Z,21.90
2019-01-29T05:11:44.661Z,17.90
2019-01-29T05:12:44.674Z,21.70
2019-01-29T05:13:44.685Z,20.40
2019-01-29T05:14:44.697Z,17.80
2019-01-29T05:15:44.722Z,23.30
2019-01-29T05:16:44.723Z,23.90
2019-01-29T05:17:44.756Z,20.00
2019-01-29T05:18:44.749Z,18.40
2019-01-29T05:19:44.763Z,21.40
2019-01-29T05:20:45.075Z,19.80
2019-01-29T05:21:44.798Z,16.90
2019-01-29T05:22:44.801Z,18.10
2019-01-29T05:23:44.817Z,19.90
2019-01-29T05:24:44.834Z,26.80
2019-01-29T05:25:44.838Z,18.60
2019-01-29T05:26:44.856Z,19.50
2019-01-29T05:27:44.863Z,21.50
2019-01-29T05:28:44.877Z,21.00
2019-01-29T05:29:44.888Z,17.00
2019-01-29T05:30:44.900Z,21.20
2019-01-29T05:31:44.914Z,16.70
2019-01-29T05:32:44.925Z,18.30
2019-01-29T05:33:44.940Z,14.50
2019-01-29T05:34:44.954Z,19.80
2019-01-29T05:35:44.967Z,18.90
2019-01-29T05:36:44.977Z,22.90
2019-01-29T05:37:44.992Z,20.60
2019-01-29T05:38:45.011Z,22.10
2019-01-29T05:39:45.014Z,19.60
2019-01-29T05:40:45.027Z,21.60
2019-01-29T05:41:45.041Z,21.70
2019-01-29T05:42:45.059Z,20.40
2019-01-29T05:43:45.068Z,23.00
2019-01-29T05:44:45.081Z,22.10
2019-01-29T05:45:45.090Z,21.20
2019-01-29T05:46:45.124Z,19.80
2019-01-29T05:47:45.119Z,21.30
2019-01-29T05:48:45.129Z,21.50
2019-01-29T05:49:45.145Z,22.30
2019-01-29T05:50:45.154Z,22.70
2019-01-29T05:51:45.166Z,21.00
2019-01-29T05:52:45.182Z,19.90
2019-01-29T05:53:45.192Z,21.80
2019-01-29T05:54:45.204Z,24.20
2019-01-29T05:55:45.219Z,23.70
2019-01-29T05:56:45.236Z,19.90
2019-01-29T05:57:45.258Z,20.30
2019-01-29T05:58:45.257Z,22.00
2019-01-29T05:59:45.268Z,25.60
2019-01-29T06:00:45.285Z,25.10
2019-01-29T06:01:45.296Z,21.00
2019-01-29T06:02:45.308Z,24.40
2019-01-29T06:03:45.323Z,15.40
2019-01-29T06:04:45.332Z,19.20
2019-01-29T06:05:45.349Z,18.00
2019-01-29T06:06:45.359Z,24.10
2019-01-29T06:07:45.373Z,21.70
2019-01-29T06:08:45.385Z,18.80
2019-01-29T06:09:45.404Z,19.00
2019-01-29T06:10:45.411Z,27.50
2019-01-29T06:11:45.426Z,20.50
2019-01-29T06:12:45.434Z,22.00
2019-01-29T06:13:45.451Z,24.30
2019-01-29T06:14:45.459Z,21.90
2019-01-29T06:15:45.474Z,27.10
2019-01-29T06:16:45.485Z,27.40
2019-01-29T06:17:45.506Z,21.10
2019-01-29T06:18:45.511Z,20.70
2019-01-29T06:19:45.523Z,24.30
2019-01-29T06:20:45.537Z,26.60
2019-01-29T06:21:45.551Z,23.50
2019-01-29T06:22:45.565Z,23.00
2019-01-29T06:23:45.581Z,23.60
2019-01-29T06:24:45.591Z,25.80
2019-01-29T06:25:45.608Z,26.40
2019-01-29T06:26:45.613Z,25.70
2019-01-29T06:27:45.631Z,26.60
2019-01-29T06:28:45.638Z,25.10
2019-01-29T06:29:45.651Z,26.00
2019-01-29T06:30:45.664Z,28.30
2019-01-29T06:31:45.687Z,26.10
2019-01-29T06:32:45.692Z,27.20
2019-01-29T06:33:45.704Z,23.60
2019-01-29T06:34:45.715Z,28.50
2019-01-29T06:35:45.728Z,26.90
2019-01-29T06:36:45.748Z,29.10
2019-01-29T06:37:45.760Z,26.20
2019-01-29T06:38:45.768Z,30.70
2019-01-29T06:39:45.783Z,27.40
2019-01-29T06:40:45.792Z,27.40
2019-01-29T06:41:45.807Z,31.90
2019-01-29T06:42:45.816Z,25.80
2019-01-29T06:43:45.830Z,26.20
2019-01-29T06:44:45.846Z,25.30
2019-01-29T06:45:45.860Z,26.20
2019-01-29T06:46:45.870Z,28.40
2019-01-29T06:47:45.882Z,27.20
2019-01-29T06:48:45.895Z,30.60
2019-01-29T06:49:45.906Z,30.10
2019-01-29T06:50:45.922Z,30.60
2019-01-29T06:51:45.934Z,33.30
2019-01-29T06:52:45.945Z,28.10
2019-01-29T06:53:45.957Z,31.20
2019-01-29T06:54:45.972Z,32.20
2019-01-29T06:55:45.984Z,33.60
2019-01-29T06:56:45.999Z,30.20
2019-01-29T06:57:54.491Z,31.10
2019-01-29T06:58:46.025Z,27.20
2019-01-29T06:59:46.038Z,30.30
2019-01-29T07:00:46.052Z,25.80
2019-01-29T07:01:46.062Z,27.90
2019-01-29T07:02:46.075Z,27.30
2019-01-29T07:03:46.086Z,31.40
2019-01-29T07:04:46.102Z,28.50
2019-01-29T07:05:46.116Z,31.60
2019-01-29T07:06:46.131Z,30.00
2019-01-29T07:07:46.141Z,28.80
2019-01-29T07:08:46.151Z,30.70
2019-01-29T07:09:46.166Z,33.80
2019-01-29T07:10:46.177Z,35.40
2019-01-29T07:11:46.189Z,30.20
2019-01-29T07:12:46.202Z,27.10
2019-01-29T07:13:46.217Z,31.60
2019-01-29T07:14:46.227Z,28.80
2019-01-29T07:15:46.240Z,33.80
2019-01-29T07:16:46.254Z,27.30
2019-01-29T07:17:46.269Z,28.40
2019-01-29T07:18:46.279Z,33.30
2019-01-29T07:19:46.295Z,27.50
2019-01-29T07:20:46.305Z,30.50
2019-01-29T07:21:46.327Z,35.40
2019-01-29T07:22:46.331Z,32.30
2019-01-29T07:23:46.347Z,32.30
2019-01-29T07:24:46.371Z,34.30
2019-01-29T07:25:46.371Z,28.80
2019-01-29T07:26:46.382Z,31.20
2019-01-29T07:27:46.399Z,35.30
2019-01-29T07:28:46.413Z,27.20
2019-01-29T07:29:46.430Z,30.60
2019-01-29T07:30:46.436Z,31.30
2019-01-29T07:31:46.448Z,30.00
2019-01-29T07:32:46.464Z,28.20
2019-01-29T07:33:46.483Z,28.50
2019-01-29T07:34:46.489Z,30.60
2019-01-29T07:35:46.500Z,28.00
2019-01-29T07:36:46.519Z,29.20
2019-01-29T07:37:46.527Z,30.10
2019-01-29T07:38:46.541Z,29.30
2019-01-29T07:39:46.552Z,27.70
2019-01-29T07:40:46.567Z,29.70
2019-01-29T07:41:46.581Z,31.50
2019-01-29T07:42:46.591Z,27.80
2019-01-29T07:43:46.605Z,32.30
2019-01-29T07:44:46.621Z,30.20
2019-01-29T07:45:46.631Z,30.60
2019-01-29T07:46:46.645Z,31.00
2019-01-29T07:47:46.660Z,26.00
2019-01-29T07:48:46.672Z,34.20
2019-01-29T07:49:46.686Z,26.30
2019-01-29T07:50:46.698Z,24.80
2019-01-29T07:51:46.713Z,25.40
2019-01-29T07:52:46.722Z,29.50
2019-01-29T07:53:46.741Z,23.30
2019-01-29T07:54:51.259Z,21.20
2019-01-29T07:55:46.766Z,21.20
2019-01-29T07:56:46.775Z,26.10
2019-01-29T07:57:46.791Z,30.10
2019-01-29T07:58:46.803Z,23.60
2019-01-29T07:59:46.814Z,26.10
2019-01-29T08:00:46.881Z,24.70
2019-01-29T08:01:46.842Z,25.40
2019-01-29T08:02:46.853Z,27.80
2019-01-29T08:03:46.870Z,21.60
2019-01-29T08:04:46.883Z,24.60
2019-01-29T08:05:46.895Z,24.20
2019-01-29T08:06:46.906Z,23.20
2019-01-29T08:07:46.919Z,20.70
2019-01-29T08:08:46.936Z,24.10
2019-01-29T08:09:46.956Z,28.10
2019-01-29T08:10:46.958Z,22.90
2019-01-29T08:11:46.973Z,23.20
2019-01-29T08:12:46.986Z,21.00
2019-01-29T08:13:47.001Z,22.50
2019-01-29T08:16:47.040Z,21.10
2019-01-29T08:17:47.053Z,23.70
2019-01-29T08:18:47.067Z,26.10
2019-01-29T08:19:47.077Z,26.30
2019-01-29T08:20:47.099Z,29.00
2019-01-29T08:21:47.111Z,20.80
2019-01-29T08:22:47.123Z,28.10
2019-01-29T08:23:47.133Z,29.00
2019-01-29T08:24:53.299Z,25.60
2019-01-29T08:25:48.075Z,28.70
2019-01-29T08:26:47.169Z,28.30
2019-01-29T08:27:47.184Z,26.40
2019-01-29T08:28:47.199Z,25.90
2019-01-29T08:29:47.209Z,21.90
2019-01-29T08:30:47.228Z,24.80
2019-01-29T08:31:47.311Z,27.90
2019-01-29T08:32:47.249Z,27.80
2019-01-29T08:33:47.263Z,27.00
2019-01-29T08:34:47.278Z,28.00
2019-01-29T08:35:47.291Z,25.50
2019-01-29T08:36:47.301Z,28.40
2019-01-29T08:37:47.316Z,31.90
2019-01-29T08:38:47.331Z,30.60
2019-01-29T08:39:47.342Z,31.20
2019-01-29T08:40:47.361Z,28.90
2019-01-29T08:41:47.369Z,25.20
2019-01-29T08:42:47.387Z,27.90
2019-01-29T08:43:47.398Z,29.10
2019-01-29T08:44:47.408Z,29.30
2019-01-29T08:45:47.424Z,35.50
2019-01-29T08:46:47.434Z,30.70
2019-01-29T08:47:47.451Z,28.80
2019-01-29T08:48:47.464Z,29.60
2019-01-29T08:49:47.477Z,27.10
2019-01-29T08:50:47.525Z,27.40
2019-01-29T08:51:47.502Z,34.20
2019-01-29T08:52:47.520Z,31.50
2019-01-29T08:53:47.528Z,32.20
2019-01-29T08:54:47.541Z,31.00
2019-01-29T08:55:47.557Z,36.40
2019-01-29T08:56:47.570Z,28.60
2019-01-29T08:57:47.585Z,31.80
2019-01-29T08:58:47.594Z,34.30
2019-01-29T08:59:47.609Z,34.90
2019-01-29T09:00:47.621Z,38.30
2019-01-29T09:01:47.642Z,33.50
2019-01-29T09:02:48.037Z,34.40
2019-01-29T09:03:47.669Z,38.90
2019-01-29T09:04:47.676Z,37.10
2019-01-29T09:05:47.687Z,31.60
2019-01-29T09:06:47.700Z,32.70
2019-01-29T09:07:47.715Z,31.80
2019-01-29T09:08:47.730Z,36.40
2019-01-29T09:09:47.743Z,35.40
2019-01-29T09:10:47.756Z,38.70
2019-01-29T09:11:47.771Z,34.40
2019-01-29T09:12:47.831Z,32.30
2019-01-29T09:13:47.796Z,39.20
2019-01-29T09:14:47.807Z,38.00
2019-01-29T09:15:47.826Z,37.00
2019-01-29T09:16:47.838Z,40.60
2019-01-29T09:17:47.851Z,39.40
2019-01-29T09:18:47.869Z,35.80
2019-01-29T09:19:47.883Z,38.60
2019-01-29T09:20:47.889Z,37.20
2019-01-29T09:21:47.903Z,40.20
2019-01-29T09:22:47.921Z,31.30
2019-01-29T09:23:47.932Z,37.80
2019-01-29T09:24:47.945Z,34.10
2019-01-29T09:25:47.957Z,35.30
2019-01-29T09:26:47.969Z,35.80
2019-01-29T09:27:47.985Z,39.20
2019-01-29T09:28:48.000Z,35.00
2019-01-29T09:29:48.017Z,34.00
2019-01-29T09:30:48.029Z,40.60
2019-01-29T09:31:48.040Z,38.60
2019-01-29T09:32:48.053Z,33.40
2019-01-29T09:33:48.065Z,34.40
2019-01-29T09:34:48.083Z,36.20
2019-01-29T09:35:48.096Z,35.80
2019-01-29T09:36:48.107Z,35.20
2019-01-29T09:37:48.121Z,38.20
2019-01-29T09:38:48.136Z,38.40
2019-01-29T09:39:48.149Z,36.60
2019-01-29T09:40:48.164Z,42.50
2019-01-29T09:41:48.174Z,37.50
2019-01-29T09:42:48.190Z,42.10
2019-01-29T09:43:48.206Z,34.60
2019-01-29T09:44:48.220Z,35.60
2019-01-29T09:45:48.233Z,35.30
2019-01-29T09:46:48.494Z,38.40
2019-01-29T09:47:48.258Z,38.90
2019-01-29T09:48:48.273Z,37.70
2019-01-29T09:49:48.284Z,37.00
2019-01-29T09:50:48.300Z,34.80
2019-01-29T09:51:48.317Z,37.30
2019-01-29T09:52:48.332Z,34.10
2019-01-29T09:53:48.343Z,37.70
2019-01-29T09:54:48.356Z,38.30
2019-01-29T09:55:48.369Z,38.90
2019-01-29T09:56:48.381Z,40.30
2019-01-29T09:57:48.399Z,33.40
2019-01-29T09:58:48.408Z,34.90
2019-01-29T09:59:48.424Z,34.60
2019-01-29T10:00:48.440Z,39.90
2019-01-29T10:01:48.451Z,31.60
2019-01-29T10:02:48.465Z,34.40
2019-01-29T10:03:48.481Z,34.50
2019-01-29T10:04:48.491Z,40.00
2019-01-29T10:05:48.513Z,33.40
2019-01-29T10:06:48.519Z,33.00
2019-01-29T10:07:48.534Z,34.20
2019-01-29T10:08:48.547Z,34.90
2019-01-29T10:09:48.564Z,35.10
2019-01-29T10:10:48.574Z,34.40
2019-01-29T10:11:48.594Z,33.80
2019-01-29T10:12:48.607Z,33.60
2019-01-29T10:13:48.642Z,35.20
2019-01-29T10:14:48.636Z,38.10
2019-01-29T10:15:48.692Z,35.90
2019-01-29T10:16:48.740Z,33.70
2019-01-29T10:17:48.725Z,35.50
2019-01-29T10:18:48.717Z,38.80
2019-01-29T10:19:48.786Z,37.70
2019-01-29T10:20:48.848Z,32.80
2019-01-29T10:21:48.733Z,34.30
2019-01-29T10:22:48.790Z,34.10
2019-01-29T10:23:48.941Z,37.30
2019-01-29T10:24:48.786Z,35.80
2019-01-29T10:25:48.793Z,38.60
2019-01-29T10:26:48.808Z,34.00
2019-01-29T10:27:48.819Z,36.50
2019-01-29T10:28:48.833Z,37.90
2019-01-29T10:29:48.847Z,33.20
2019-01-29T10:30:48.859Z,36.20
2019-01-29T10:31:48.883Z,37.20
2019-01-29T10:32:48.891Z,35.90
2019-01-29T10:33:48.904Z,39.80
2019-01-29T10:34:48.916Z,37.30
2019-01-29T10:35:48.930Z,33.90
2019-01-29T10:36:48.949Z,35.20
2019-01-29T10:37:48.964Z,36.60
2019-01-29T10:38:48.975Z,40.30
2019-01-29T10:39:49.040Z,39.30
2019-01-29T10:40:49.019Z,35.40
2019-01-29T10:41:49.017Z,36.30
2019-01-29T10:42:49.032Z,37.90
2019-01-29T10:43:49.046Z,39.00
2019-01-29T10:44:49.059Z,38.80
2019-01-29T10:45:49.076Z,36.50
2019-01-29T10:46:49.087Z,36.30
2019-01-29T10:47:49.105Z,39.20
2019-01-29T10:48:49.117Z,40.40
2019-01-29T10:49:49.132Z,42.80
2019-01-29T10:50:49.152Z,45.30
2019-01-29T10:51:49.161Z,39.70
2019-01-29T10:52:49.176Z,42.20
2019-01-29T10:53:49.192Z,44.80
2019-01-29T10:54:49.202Z,37.10
2019-01-29T10:55:49.219Z,42.20
2019-01-29T10:56:49.233Z,34.10
2019-01-29T10:57:49.256Z,44.00
2019-01-29T10:58:49.261Z,40.30
2019-01-29T10:59:49.281Z,37.40
2019-01-29T11:00:49.295Z,40.10
2019-01-29T11:01:49.308Z,38.60
2019-01-29T11:02:49.324Z,39.00
2019-01-29T11:03:49.336Z,36.80
2019-01-29T11:04:50.855Z,44.20
2019-01-29T11:05:49.506Z,42.80
2019-01-29T11:06:49.379Z,43.40
2019-01-29T11:07:49.440Z,40.40
2019-01-29T11:08:50.572Z,39.00
2019-01-29T11:09:49.445Z,41.40
2019-01-29T11:10:49.522Z,47.20
2019-01-29T11:11:49.530Z,37.90
2019-01-29T11:12:49.467Z,55.50
2019-01-29T11:13:49.478Z,39.60
2019-01-29T11:14:49.495Z,41.90
2019-01-29T11:15:49.509Z,43.40
2019-01-29T11:16:49.522Z,41.60
2019-01-29T11:17:49.537Z,43.30
2019-01-29T11:18:49.552Z,47.60
2019-01-29T11:19:49.768Z,44.60
2019-01-29T11:20:49.589Z,42.00
2019-01-29T11:21:49.606Z,41.70
2019-01-29T11:22:49.665Z,49.50
2019-01-29T11:23:49.627Z,43.00
2019-01-29T11:24:49.640Z,45.30
2019-01-29T11:25:55.603Z,44.10
2019-01-29T11:26:49.711Z,49.20
2019-01-29T11:27:49.685Z,41.50
2019-01-29T11:28:49.699Z,37.40
2019-01-29T11:29:49.713Z,41.50
2019-01-29T11:30:49.727Z,46.60
2019-01-29T11:31:49.844Z,44.50
2019-01-29T11:32:49.758Z,46.50
2019-01-29T11:33:49.772Z,49.10
2019-01-29T11:34:49.783Z,46.70
2019-01-29T11:35:49.798Z,44.80
2019-01-29T11:36:49.816Z,39.30
2019-01-29T11:37:49.830Z,43.10
2019-01-29T11:38:49.845Z,46.50
2019-01-29T11:39:49.856Z,38.70
2019-01-29T11:40:49.874Z,43.40
2019-01-29T11:41:49.890Z,46.60
2019-01-29T11:42:49.903Z,38.80
2019-01-29T11:43:49.914Z,43.40
2019-01-29T11:44:49.932Z,41.40
2019-01-29T11:45:49.946Z,43.30
2019-01-29T11:46:49.962Z,40.50
2019-01-29T11:47:49.976Z,40.10
2019-01-29T11:48:49.989Z,32.90
2019-01-29T11:49:50.004Z,37.00
2019-01-29T11:50:50.021Z,35.60
2019-01-29T11:51:50.034Z,37.60
2019-01-29T11:52:50.049Z,35.50
2019-01-29T11:53:50.062Z,40.00
2019-01-29T11:54:50.499Z,32.90
2019-01-29T11:55:50.093Z,33.10
2019-01-29T11:56:50.107Z,37.40
2019-01-29T11:57:50.124Z,39.70
2019-01-29T11:58:50.135Z,35.10
2019-01-29T11:59:50.151Z,34.90
2019-01-29T12:00:50.164Z,34.30
2019-01-29T12:01:50.180Z,38.50
2019-01-29T12:02:50.193Z,35.50
2019-01-29T12:03:50.209Z,29.70
2019-01-29T12:04:50.227Z,33.50
2019-01-29T12:05:50.241Z,32.40
2019-01-29T12:06:50.254Z,35.70
2019-01-29T12:07:50.270Z,34.80
2019-01-29T12:08:50.284Z,31.90
2019-01-29T12:09:50.301Z,33.50
2019-01-29T12:10:50.311Z,35.20
2019-01-29T12:11:50.677Z,30.70
2019-01-29T12:12:50.395Z,30.80
2019-01-29T12:13:50.357Z,29.50
2019-01-29T12:14:50.372Z,30.70
2019-01-29T12:15:50.389Z,31.80
2019-01-29T12:16:50.407Z,30.30
2019-01-29T12:17:50.418Z,31.90
2019-01-29T12:18:50.431Z,30.90
2019-01-29T12:19:50.446Z,31.70
2019-01-29T12:20:50.562Z,30.60
2019-01-29T12:21:50.476Z,33.80
2019-01-29T12:22:50.841Z,32.10
2019-01-29T12:23:50.509Z,33.50
2019-01-29T12:24:50.725Z,30.40
2019-01-29T12:25:50.786Z,30.40
2019-01-29T12:26:50.552Z,31.60
2019-01-29T12:27:50.566Z,31.00
2019-01-29T12:28:50.835Z,30.30
2019-01-29T12:29:50.596Z,27.70
2019-01-29T12:30:50.612Z,35.30
2019-01-29T12:31:50.626Z,28.20
2019-01-29T12:32:50.641Z,27.40
2019-01-29T12:33:50.662Z,27.90
2019-01-29T12:34:50.673Z,27.40
2019-01-29T12:35:50.688Z,28.30
2019-01-29T12:36:50.703Z,31.80
2019-01-29T12:37:50.717Z,27.80
2019-01-29T12:38:50.735Z,29.20
2019-01-29T12:39:50.753Z,29.60
2019-01-29T12:40:50.762Z,28.50
2019-01-29T12:41:50.977Z,27.00
2019-01-29T12:42:50.791Z,31.20
2019-01-29T12:43:50.807Z,32.90
2019-01-29T12:44:50.822Z,29.40
2019-01-29T12:45:50.942Z,30.20
2019-01-29T12:46:50.853Z,28.90
2019-01-29T12:47:50.874Z,31.10
2019-01-29T12:48:50.882Z,27.20
2019-01-29T12:49:50.903Z,88.50
2019-01-29T12:50:50.912Z,39.80
2019-01-29T12:51:50.930Z,31.00
2019-01-29T12:52:50.943Z,32.50
2019-01-29T12:53:50.964Z,28.70
2019-01-29T12:54:50.974Z,29.30
2019-01-29T12:55:50.990Z,28.30
2019-01-29T12:56:51.006Z,24.60
2019-01-29T12:57:51.021Z,27.40